createdAt,value
2018-12-23T00:01:25.726Z,40.10
2018-12-23T00:03:54.522Z,38.13
2018-12-23T00:06:23.297Z,33.53
2018-12-23T00:08:52.070Z,38.13
2018-12-23T00:11:20.992Z,39.93
2018-12-23T00:13:49.865Z,43.87
2018-12-23T00:16:18.628Z,40.93
2018-12-23T00:18:47.354Z,45.73
2018-12-23T00:21:16.173Z,42.77
2018-12-23T00:23:45.000Z,46.20
2018-12-23T00:26:13.865Z,46.27
2018-12-23T00:28:42.652Z,47.80
2018-12-23T00:31:11.449Z,44.47
2018-12-23T00:33:40.374Z,42.77
2018-12-23T00:36:09.276Z,47.83
2018-12-23T00:38:38.110Z,41.30
2018-12-23T00:41:06.875Z,49.73
2018-12-23T00:43:35.805Z,48.40
2018-12-23T00:46:04.630Z,42.27
2018-12-23T00:48:34.369Z,46.60
2018-12-23T00:51:03.230Z,40.30
2018-12-23T00:53:31.982Z,38.33
2018-12-23T00:56:01.565Z,43.97
2018-12-23T00:58:30.362Z,42.20
2018-12-23T01:00:59.175Z,46.23
2018-12-23T01:03:27.976Z,42.67
2018-12-23T01:05:56.771Z,38.57
2018-12-23T01:08:25.618Z,43.70
2018-12-23T01:10:54.455Z,39.43
2018-12-23T01:13:24.070Z,40.67
2018-12-23T01:15:52.817Z,39.87
2018-12-23T01:18:21.573Z,38.70
2018-12-23T01:20:50.389Z,46.07
2018-12-23T01:23:19.097Z,39.30
2018-12-23T01:25:47.820Z,39.17
2018-12-23T01:28:16.631Z,40.13
2018-12-23T01:30:45.441Z,37.60
2018-12-23T01:33:14.178Z,34.30
2018-12-23T01:35:43.090Z,40.93
2018-12-23T01:38:12.522Z,41.77
2018-12-23T01:40:41.378Z,39.03
2018-12-23T01:43:10.185Z,38.73
2018-12-23T01:45:39.036Z,48.27
2018-12-23T01:48:07.845Z,38.37
2018-12-23T01:50:36.610Z,33.53
2018-12-23T01:53:05.372Z,37.13
2018-12-23T01:55:34.101Z,36.73
2018-12-23T01:58:02.873Z,34.77
2018-12-23T02:00:31.710Z,34.90
2018-12-23T02:03:00.632Z,34.27
2018-12-23T02:05:29.398Z,33.57
2018-12-23T02:07:58.239Z,30.03
2018-12-23T02:10:27.099Z,32.53
2018-12-23T02:12:56.043Z,31.57
2018-12-23T02:15:24.789Z,32.47
2018-12-23T02:17:53.571Z,31.17
2018-12-23T02:20:22.346Z,27.80
2018-12-23T02:22:51.133Z,27.13
2018-12-23T02:25:20.041Z,29.10
2018-12-23T02:27:48.853Z,32.17
2018-12-23T02:30:17.633Z,30.33
2018-12-23T02:32:46.419Z,30.67
2018-12-23T02:35:15.291Z,30.40
2018-12-23T02:37:44.010Z,32.67
2018-12-23T02:40:12.765Z,30.77
2018-12-23T02:42:41.542Z,33.50
2018-12-23T02:45:10.289Z,31.90
2018-12-23T02:47:39.136Z,30.90
2018-12-23T02:50:07.925Z,31.87
2018-12-23T02:52:36.769Z,30.07
2018-12-23T02:55:05.579Z,29.17
2018-12-23T02:57:34.301Z,30.40
2018-12-23T03:00:03.151Z,34.37
2018-12-23T03:02:31.950Z,33.83
2018-12-23T03:05:00.726Z,32.10
2018-12-23T03:07:29.478Z,31.93
2018-12-23T03:09:58.254Z,30.27
2018-12-23T03:12:27.062Z,32.73
2018-12-23T03:14:55.889Z,33.23
2018-12-23T03:17:24.680Z,31.30
2018-12-23T03:19:53.424Z,37.10
2018-12-23T03:22:22.252Z,34.80
2018-12-23T03:24:51.042Z,31.80
2018-12-23T03:27:19.791Z,31.73
2018-12-23T03:29:48.684Z,30.33
2018-12-23T03:32:17.458Z,31.10
2018-12-23T03:34:46.291Z,35.97
2018-12-23T03:37:14.999Z,36.70
2018-12-23T03:39:43.797Z,32.70
2018-12-23T03:42:12.611Z,36.37
2018-12-23T03:44:41.701Z,35.63
2018-12-23T03:47:10.562Z,35.27
2018-12-23T03:49:39.368Z,39.43
2018-12-23T03:52:08.201Z,35.30
2018-12-23T03:54:36.956Z,34.10
2018-12-23T03:57:05.777Z,37.33
2018-12-23T03:59:34.579Z,35.67
2018-12-23T04:02:03.402Z,33.67
2018-12-23T04:04:32.127Z,38.93
2018-12-23T04:07:00.882Z,37.77
2018-12-23T04:09:29.584Z,34.40
2018-12-23T04:11:59.581Z,34.83
2018-12-23T04:14:28.398Z,39.80
2018-12-23T04:16:57.212Z,35.50
2018-12-23T04:19:25.985Z,34.53
2018-12-23T04:21:54.761Z,34.63
2018-12-23T04:24:23.573Z,33.83
2018-12-23T04:26:52.429Z,35.53
2018-12-23T04:29:21.325Z,34.20
2018-12-23T04:31:50.180Z,34.30
2018-12-23T04:34:19.113Z,36.53
2018-12-23T04:36:47.884Z,33.73
2018-12-23T04:39:16.666Z,35.90
2018-12-23T04:41:45.475Z,37.67
2018-12-23T04:44:14.261Z,35.70
2018-12-23T04:46:43.032Z,40.10
2018-12-23T04:49:11.903Z,41.57
2018-12-23T04:51:40.634Z,41.97
2018-12-23T04:54:09.457Z,41.27
2018-12-23T04:56:38.205Z,42.03
2018-12-23T04:59:06.982Z,43.93
2018-12-23T05:01:35.712Z,43.80
2018-12-23T05:04:04.491Z,41.63
2018-12-23T05:06:33.239Z,41.53
2018-12-23T05:09:01.960Z,42.60
2018-12-23T05:11:31.341Z,42.47
2018-12-23T05:14:00.214Z,44.87
2018-12-23T05:16:28.978Z,54.00
2018-12-23T05:18:57.759Z,49.77
2018-12-23T05:21:26.586Z,53.17
2018-12-23T05:23:55.439Z,51.03
2018-12-23T05:26:24.130Z,50.17
2018-12-23T05:28:53.329Z,51.53
2018-12-23T05:31:22.117Z,44.20
2018-12-23T05:33:50.853Z,46.60
2018-12-23T05:36:19.731Z,46.60
2018-12-23T05:38:48.554Z,46.77
2018-12-23T05:41:17.342Z,45.33
2018-12-23T05:43:46.204Z,47.60
2018-12-23T05:46:14.940Z,45.37
2018-12-23T05:48:43.740Z,41.30
2018-12-23T05:51:12.560Z,43.93
2018-12-23T05:53:41.428Z,43.47
2018-12-23T05:56:10.252Z,45.63
2018-12-23T05:58:38.988Z,43.57
2018-12-23T06:01:07.731Z,42.97
2018-12-23T06:03:36.466Z,45.27
2018-12-23T06:06:05.344Z,41.90
2018-12-23T06:08:35.118Z,42.60
2018-12-23T06:11:03.967Z,43.97
2018-12-23T06:13:32.688Z,44.33
2018-12-23T06:16:01.496Z,38.13
2018-12-23T06:18:30.308Z,39.23
2018-12-23T06:20:59.162Z,39.13
2018-12-23T06:23:27.862Z,39.57
2018-12-23T06:25:56.574Z,40.37
2018-12-23T06:28:25.320Z,39.67
2018-12-23T06:30:54.163Z,38.40
2018-12-23T06:33:22.997Z,34.20
2018-12-23T06:35:51.797Z,36.17
2018-12-23T06:38:20.636Z,34.40
2018-12-23T06:40:49.409Z,36.37
2018-12-23T06:43:18.189Z,36.37
2018-12-23T06:45:46.978Z,33.07
2018-12-23T06:48:15.733Z,33.13
2018-12-23T06:50:44.508Z,38.00
2018-12-23T06:53:13.199Z,32.83
2018-12-23T06:55:41.978Z,32.07
2018-12-23T06:58:10.823Z,38.87
2018-12-23T07:00:39.655Z,33.63
2018-12-23T07:03:08.518Z,40.03
2018-12-23T07:05:37.336Z,33.97
2018-12-23T07:08:06.122Z,33.10
2018-12-23T07:10:34.977Z,28.87
2018-12-23T07:13:04.010Z,29.23
2018-12-23T07:15:32.810Z,25.93
2018-12-23T07:18:01.606Z,25.13
2018-12-23T07:20:30.443Z,21.70
2018-12-23T07:22:59.237Z,21.73
2018-12-23T07:25:27.991Z,22.10
2018-12-23T07:27:56.802Z,20.40
2018-12-23T07:30:25.563Z,20.50
2018-12-23T07:32:54.270Z,23.13
2018-12-23T07:35:23.110Z,24.20
2018-12-23T07:37:51.971Z,22.53
2018-12-23T07:40:20.737Z,22.13
2018-12-23T07:42:49.506Z,23.63
2018-12-23T07:45:18.328Z,20.27
2018-12-23T07:47:47.100Z,23.77
2018-12-23T07:50:15.933Z,22.03
2018-12-23T07:52:44.719Z,21.80
2018-12-23T07:55:13.564Z,23.33
2018-12-23T07:57:42.387Z,23.57
2018-12-23T08:00:11.270Z,24.93
2018-12-23T08:02:40.131Z,26.77
2018-12-23T08:05:08.893Z,26.47
2018-12-23T08:07:37.751Z,25.87
2018-12-23T08:10:06.610Z,29.40
2018-12-23T08:12:35.388Z,34.10
2018-12-23T08:15:04.269Z,30.00
2018-12-23T08:17:33.083Z,36.07
2018-12-23T08:20:01.980Z,31.67
2018-12-23T08:22:30.817Z,33.33
2018-12-23T08:24:59.572Z,31.03
2018-12-23T08:27:28.493Z,31.03
2018-12-23T08:29:57.317Z,31.57
2018-12-23T08:32:26.156Z,25.87
2018-12-23T08:34:54.907Z,26.23
2018-12-23T08:37:23.727Z,25.27
2018-12-23T08:39:52.475Z,27.23
2018-12-23T08:42:21.239Z,25.63
2018-12-23T08:44:50.016Z,23.33
2018-12-23T08:47:18.789Z,25.47
2018-12-23T08:49:47.558Z,23.80
2018-12-23T08:52:16.370Z,31.43
2018-12-23T08:54:45.162Z,26.53
2018-12-23T08:57:13.874Z,26.93
2018-12-23T08:59:42.936Z,24.10
2018-12-23T09:02:11.720Z,37.20
2018-12-23T09:04:40.442Z,28.97
2018-12-23T09:07:09.281Z,27.73
2018-12-23T09:09:38.098Z,25.93
2018-12-23T09:12:06.907Z,28.93
2018-12-23T09:14:35.717Z,23.27
2018-12-23T09:17:04.521Z,27.87
2018-12-23T09:19:33.354Z,26.40
2018-12-23T09:22:02.133Z,23.57
2018-12-23T09:24:30.930Z,26.57
2018-12-23T09:26:59.779Z,22.43
2018-12-23T09:29:28.596Z,24.13
2018-12-23T09:31:58.482Z,19.80
2018-12-23T09:34:27.232Z,17.73
2018-12-23T09:36:56.011Z,22.47
2018-12-23T09:39:24.780Z,18.27
2018-12-23T09:41:53.614Z,17.83
2018-12-23T09:44:22.342Z,18.17
2018-12-23T09:46:51.165Z,18.07
2018-12-23T09:49:19.953Z,19.07
2018-12-23T09:51:48.690Z,17.23
2018-12-23T09:54:17.404Z,16.63
2018-12-23T09:56:46.198Z,18.37
2018-12-23T09:59:14.958Z,19.90
2018-12-23T10:01:43.685Z,15.87
2018-12-23T10:04:12.431Z,15.93
2018-12-23T10:06:41.202Z,13.33
2018-12-23T10:09:09.971Z,15.27
2018-12-23T10:11:38.812Z,12.70
2018-12-23T10:14:07.586Z,16.60
2018-12-23T10:16:36.473Z,14.13
2018-12-23T10:19:05.420Z,21.57
2018-12-23T10:21:34.184Z,13.37
2018-12-23T10:24:02.965Z,13.30
2018-12-23T10:26:31.776Z,18.80
2018-12-23T10:29:00.637Z,18.53
2018-12-23T10:31:29.367Z,15.93
2018-12-23T10:33:58.213Z,18.20
2018-12-23T10:36:26.909Z,13.63
2018-12-23T10:38:55.843Z,10.83
2018-12-23T10:41:24.538Z,18.03
2018-12-23T10:43:53.270Z,17.97
2018-12-23T10:46:22.041Z,15.33
2018-12-23T10:48:50.777Z,9.10
2018-12-23T10:51:19.511Z,9.90
2018-12-23T10:53:48.269Z,13.63
2018-12-23T10:56:23.391Z,16.23
2018-12-23T10:58:53.187Z,16.73
2018-12-23T11:01:21.982Z,13.23
2018-12-23T11:03:50.759Z,12.70
2018-12-23T11:06:19.595Z,14.33
2018-12-23T11:08:48.397Z,19.07
2018-12-23T11:11:17.170Z,15.40
2018-12-23T11:13:45.886Z,8.60
2018-12-23T11:16:14.698Z,12.10
2018-12-23T11:18:43.404Z,17.03
2018-12-23T11:21:12.255Z,10.77
2018-12-23T11:23:41.064Z,10.60
2018-12-23T11:26:09.992Z,12.40
2018-12-23T11:28:38.860Z,11.57
2018-12-23T11:31:07.768Z,15.73
2018-12-23T11:33:36.574Z,14.17
2018-12-23T11:36:05.410Z,13.13
2018-12-23T11:38:35.694Z,21.87
2018-12-23T11:41:04.723Z,24.67
2018-12-23T11:43:33.529Z,19.20
2018-12-23T11:46:02.355Z,18.43
2018-12-23T11:48:31.158Z,14.20
2018-12-23T11:50:59.998Z,17.33
2018-12-23T11:53:28.835Z,15.90
2018-12-23T11:55:58.043Z,14.67
2018-12-23T11:58:26.830Z,13.80
2018-12-23T12:00:55.601Z,15.90
2018-12-23T12:03:24.517Z,11.57
2018-12-23T12:05:53.390Z,11.80
2018-12-23T12:08:22.177Z,12.50
2018-12-23T12:10:51.031Z,11.00
2018-12-23T12:13:19.775Z,18.07
2018-12-23T12:15:48.610Z,11.23
2018-12-23T12:18:17.363Z,12.10
2018-12-23T12:20:46.079Z,15.97
2018-12-23T12:23:14.810Z,13.77
2018-12-23T12:25:43.623Z,9.53
2018-12-23T12:28:12.358Z,9.20
2018-12-23T12:30:41.211Z,8.67
2018-12-23T12:33:09.917Z,8.50
2018-12-23T12:35:38.807Z,5.93
2018-12-23T12:38:07.649Z,5.83
2018-12-23T12:40:36.417Z,7.17
2018-12-23T12:43:05.101Z,5.37
2018-12-23T12:45:33.858Z,8.43
2018-12-23T12:48:02.681Z,11.10
2018-12-23T12:50:31.418Z,10.67
2018-12-23T12:53:00.286Z,10.73
2018-12-23T12:55:28.990Z,7.70
2018-12-23T12:57:57.760Z,15.60
2018-12-23T13:00:26.575Z,21.23
2018-12-23T13:02:55.289Z,36.17
2018-12-23T13:05:24.121Z,37.83
2018-12-23T13:07:52.995Z,16.13
2018-12-23T13:10:21.987Z,5.93
2018-12-23T13:12:50.702Z,3.90
2018-12-23T13:15:19.394Z,4.90
2018-12-23T13:17:48.180Z,2.97
2018-12-23T13:20:16.921Z,4.07
2018-12-23T13:22:45.704Z,7.77
2018-12-23T13:25:14.522Z,3.20
2018-12-23T13:27:43.288Z,5.37
2018-12-23T13:30:12.085Z,6.73
2018-12-23T13:32:40.934Z,5.23
2018-12-23T13:35:09.734Z,4.57
2018-12-23T13:37:38.596Z,5.73
2018-12-23T13:40:17.466Z,6.93
2018-12-23T13:42:57.923Z,3.60
2018-12-23T13:45:51.463Z,2.10
2018-12-23T13:49:18.311Z,6.53
2018-12-23T13:52:02.303Z,3.83
2018-12-23T13:54:42.404Z,7.23
2018-12-23T13:57:26.809Z,5.47
2018-12-23T14:00:08.586Z,8.03
2018-12-23T14:02:54.272Z,29.50
2018-12-23T14:07:43.684Z,41.07
2018-12-23T14:10:25.083Z,7.90
2018-12-23T14:12:53.799Z,9.60
2018-12-23T14:15:22.623Z,9.27
2018-12-23T14:17:51.455Z,11.33
2018-12-23T14:20:20.266Z,13.37
2018-12-23T14:22:49.286Z,7.87
2018-12-23T14:25:17.945Z,8.97
2018-12-23T14:27:46.675Z,11.80
2018-12-23T14:30:15.397Z,9.67
2018-12-23T14:32:44.198Z,22.07
2018-12-23T14:35:13.049Z,11.37
2018-12-23T14:37:41.745Z,11.60
2018-12-23T14:40:10.528Z,10.33
2018-12-23T14:42:39.322Z,8.30
2018-12-23T14:45:08.136Z,8.47
2018-12-23T14:47:36.948Z,11.90
2018-12-23T14:50:08.136Z,15.97
2018-12-23T14:52:36.972Z,18.47
2018-12-23T14:55:05.829Z,27.33
2018-12-23T14:57:34.645Z,14.07
2018-12-23T15:00:04.113Z,8.30
2018-12-23T15:02:32.805Z,8.10
2018-12-23T15:05:01.627Z,9.80
2018-12-23T15:07:30.339Z,11.97
2018-12-23T15:09:59.075Z,12.57
2018-12-23T15:12:27.841Z,9.50
2018-12-23T15:14:56.662Z,10.93
2018-12-23T15:17:25.348Z,10.33
2018-12-23T15:19:54.122Z,8.20
2018-12-23T15:22:22.805Z,6.03
2018-12-23T15:24:51.607Z,4.23
2018-12-23T15:27:20.357Z,6.63
2018-12-23T15:29:49.254Z,8.93
2018-12-23T15:32:17.938Z,6.03
2018-12-23T15:34:46.797Z,5.07
2018-12-23T15:37:15.517Z,5.20
2018-12-23T15:39:44.320Z,3.87
2018-12-23T15:42:13.050Z,4.57
2018-12-23T15:44:41.889Z,8.80
2018-12-23T15:47:10.670Z,6.87
2018-12-23T15:49:39.495Z,9.30
2018-12-23T15:52:08.318Z,9.63
2018-12-23T15:54:37.088Z,8.57
2018-12-23T15:57:05.812Z,10.27
2018-12-23T15:59:34.629Z,10.60
2018-12-23T16:02:03.512Z,10.10
2018-12-23T16:04:32.281Z,13.80
2018-12-23T16:07:01.041Z,8.23
2018-12-23T16:09:29.816Z,7.20
2018-12-23T16:11:58.734Z,10.77
2018-12-23T16:14:27.551Z,8.37
2018-12-23T16:16:56.263Z,6.57
2018-12-23T16:19:24.983Z,6.63
2018-12-23T16:21:53.839Z,7.07
2018-12-23T16:24:22.538Z,8.47
2018-12-23T16:26:51.270Z,5.13
2018-12-23T16:29:20.063Z,9.63
2018-12-23T16:31:48.935Z,6.10
2018-12-23T16:34:17.713Z,4.70
2018-12-23T16:36:46.530Z,3.87
2018-12-23T16:39:15.419Z,4.10
2018-12-23T16:41:44.146Z,5.77
2018-12-23T16:44:12.943Z,4.53
2018-12-23T16:46:41.720Z,3.90
2018-12-23T16:49:10.432Z,3.80
2018-12-23T16:51:39.165Z,4.33
2018-12-23T16:54:07.986Z,6.77
2018-12-23T16:56:36.821Z,7.60
2018-12-23T16:59:05.638Z,5.53
2018-12-23T17:01:34.415Z,3.37
2018-12-23T17:04:03.212Z,2.63
2018-12-23T17:06:32.038Z,12.27
2018-12-23T17:09:00.817Z,18.97
2018-12-23T17:11:30.041Z,5.77
2018-12-23T17:13:58.858Z,17.90
2018-12-23T17:16:27.618Z,4.13
2018-12-23T17:18:56.362Z,2.63
2018-12-23T17:21:25.233Z,10.03
2018-12-23T17:23:54.041Z,2.97
2018-12-23T17:26:22.907Z,11.30
2018-12-23T17:28:51.601Z,4.20
2018-12-23T17:31:20.786Z,4.67
2018-12-23T17:33:49.566Z,3.33
2018-12-23T17:36:18.330Z,5.40
2018-12-23T17:38:47.084Z,4.67
2018-12-23T17:41:15.906Z,3.60
2018-12-23T17:43:45.718Z,1.97
2018-12-23T17:46:14.499Z,2.87
2018-12-23T17:48:43.275Z,3.60
2018-12-23T17:51:12.020Z,3.23
2018-12-23T17:53:40.898Z,4.20
2018-12-23T17:56:09.679Z,3.17
2018-12-23T17:58:38.497Z,3.13
2018-12-23T18:01:07.357Z,1.70
2018-12-23T18:03:36.290Z,3.90
2018-12-23T18:06:05.140Z,4.47
2018-12-23T18:08:33.917Z,6.97
2018-12-23T18:11:02.617Z,3.50
2018-12-23T18:13:31.358Z,2.53
2018-12-23T18:16:00.082Z,1.30
2018-12-23T18:18:28.915Z,3.17
2018-12-23T18:20:57.673Z,6.80
2018-12-23T18:23:26.474Z,24.80
2018-12-23T18:25:55.261Z,8.87
2018-12-23T18:28:24.091Z,5.33
2018-12-23T18:30:52.840Z,2.63
2018-12-23T18:33:21.668Z,6.63
2018-12-23T18:35:50.427Z,2.13
2018-12-23T18:38:19.299Z,2.70
2018-12-23T18:40:48.035Z,2.67
2018-12-23T18:43:16.793Z,2.23
2018-12-23T18:45:45.559Z,3.80
2018-12-23T18:48:14.347Z,2.37
2018-12-23T18:50:43.167Z,4.00
2018-12-23T18:53:11.973Z,6.40
2018-12-23T18:55:40.761Z,5.53
2018-12-23T18:58:09.605Z,3.10
2018-12-23T19:00:40.024Z,3.63
2018-12-23T19:03:08.802Z,8.23
2018-12-23T19:05:37.582Z,5.93
2018-12-23T19:08:10.988Z,6.60
2018-12-23T19:10:51.508Z,3.70
2018-12-23T19:15:33.490Z,6.63
2018-12-23T19:18:18.211Z,6.47
2018-12-23T19:20:57.359Z,5.63
2018-12-23T19:23:32.865Z,6.00
2018-12-23T19:26:10.626Z,9.07
2018-12-23T19:28:47.337Z,4.80
2018-12-23T19:32:30.373Z,8.60
2018-12-23T19:37:21.730Z,4.83
2018-12-23T19:40:02.021Z,3.00
2018-12-23T19:43:16.680Z,7.17
2018-12-23T19:46:33.297Z,5.87
2018-12-23T19:49:18.097Z,3.00
2018-12-23T19:51:59.107Z,4.60
2018-12-23T19:54:41.605Z,5.33
2018-12-23T19:57:19.449Z,4.67
2018-12-23T20:00:24.454Z,5.63
2018-12-23T20:03:03.836Z,15.67
2018-12-23T20:05:50.345Z,7.17
2018-12-23T20:09:03.370Z,6.20
2018-12-23T20:13:50.634Z,5.53
2018-12-23T20:16:35.376Z,6.77
2018-12-23T20:20:17.088Z,8.60
2018-12-23T20:22:58.821Z,7.30
2018-12-23T20:25:44.419Z,7.33
2018-12-23T20:28:27.390Z,8.40
2018-12-23T20:31:07.014Z,7.27
2018-12-23T20:33:48.685Z,6.93
2018-12-23T20:36:29.848Z,4.67
2018-12-23T20:39:32.738Z,7.30
2018-12-23T20:42:10.547Z,6.57
2018-12-23T20:44:50.479Z,5.23
2018-12-23T20:48:26.751Z,5.03
2018-12-23T20:51:11.602Z,7.00
2018-12-23T20:53:58.883Z,7.53
2018-12-23T20:56:36.678Z,6.13
2018-12-23T20:59:16.265Z,7.03
2018-12-23T21:02:00.306Z,5.87
2018-12-23T21:04:38.134Z,6.93
2018-12-23T21:07:21.690Z,9.27
2018-12-23T21:10:04.614Z,15.60
2018-12-23T21:12:46.494Z,5.07
2018-12-23T21:17:06.361Z,7.77
2018-12-23T21:19:57.150Z,5.37
2018-12-23T21:24:49.230Z,7.10
2018-12-23T21:27:29.042Z,9.23
2018-12-23T21:30:17.055Z,9.57
2018-12-23T21:33:00.585Z,9.00
2018-12-23T21:36:13.810Z,10.07
2018-12-23T21:39:01.916Z,12.60
2018-12-23T21:42:40.863Z,9.93
2018-12-23T21:47:31.405Z,8.80
2018-12-23T21:50:30.553Z,12.70
2018-12-23T21:53:17.333Z,10.50
2018-12-23T21:59:00.451Z,11.93
2018-12-23T22:03:42.805Z,9.27
2018-12-23T22:06:21.648Z,7.97
2018-12-23T22:09:05.253Z,9.73
2018-12-23T22:11:49.858Z,11.93
2018-12-23T22:14:18.565Z,9.70
2018-12-23T22:16:47.392Z,10.77
2018-12-23T22:19:16.185Z,7.53
2018-12-23T22:21:44.961Z,11.77
2018-12-23T22:24:13.718Z,12.50
2018-12-23T22:26:42.570Z,14.33
2018-12-23T22:29:11.310Z,11.70
2018-12-23T22:31:40.090Z,10.27
2018-12-23T22:34:08.883Z,9.97
2018-12-23T22:36:37.756Z,8.63
2018-12-23T22:39:07.546Z,6.03
2018-12-23T22:41:41.277Z,5.77
2018-12-23T22:44:07.103Z,7.93
2018-12-23T22:46:35.981Z,9.03
2018-12-23T22:49:04.922Z,6.40
2018-12-23T22:51:33.698Z,5.93
2018-12-23T22:54:02.487Z,7.93
2018-12-23T22:56:31.250Z,7.83
2018-12-23T22:58:59.939Z,6.47
2018-12-23T23:01:28.696Z,6.57
2018-12-23T23:03:57.430Z,8.47
2018-12-23T23:06:26.242Z,7.43
2018-12-23T23:08:55.018Z,8.10
2018-12-23T23:11:23.873Z,8.13
2018-12-23T23:13:52.647Z,5.53
2018-12-23T23:16:21.551Z,9.33
2018-12-23T23:18:50.303Z,5.57
2018-12-23T23:21:19.093Z,6.70
2018-12-23T23:23:47.814Z,7.40
2018-12-23T23:26:16.620Z,6.73
2018-12-23T23:28:45.524Z,7.20
2018-12-23T23:31:14.232Z,6.20
2018-12-23T23:33:42.960Z,9.03
2018-12-23T23:36:11.837Z,6.33
2018-12-23T23:38:40.561Z,9.53
2018-12-23T23:41:09.330Z,6.80
2018-12-23T23:43:38.135Z,5.40
2018-12-23T23:46:06.886Z,6.40
2018-12-23T23:48:35.612Z,7.27
2018-12-23T23:51:04.464Z,4.27
2018-12-23T23:53:33.271Z,8.43
2018-12-23T23:56:02.096Z,6.80
2018-12-23T23:58:30.801Z,4.73
